Terminal Aerodrome Forecast
Issued by NWS

Home | Current Version | Previous Version | Graphics & Text | Print | Product List | Glossary On
Versions: 1 2 3 4 5 6 7 8 9 10 11 12 13 14 15 16 17 18 19 20 21 22 23 24 25 26 27 28 29 30
510
FTUS43 KLOT 240956 AAB
TAFDPA
TAF AMD
KDPA 240956Z 2410/2506 05013KT 5SM BR VCTS OVC003CB
      TEMPO 2410/2412 3SM -SHRA OVC006
     FM241200 04010KT 2SM -DZ BR VCSH OVC004
     FM241500 01008KT 1 1/2SM -DZ BR OVC003
     FM241900 33008KT 3SM BR VCSH OVC007
     FM242200 28008KT P6SM SCT007 OVC015
     FM250300 29012G18KT P6SM OVC022=

USA.gov is the U.S. government's official web portal to all federal, state and local government web resources and services.